sensor_id;sensor_type;location;lat;lon;timestamp;P1;durP1;ratioP1;P2;durP2;ratioP2
73315;SDS011;61545;53.726;-0.444;2022-09-16T00:03:00;2.7;;;0.6;;
73315;SDS011;61545;53.726;-0.444;2022-09-16T00:08:01;3.1;;;0.7;;
73315;SDS011;61545;53.726;-0.444;2022-09-16T00:13:00;3.1;;;0.7;;
73315;SDS011;61545;53.726;-0.444;2022-09-16T00:18:00;3.4;;;0.8;;
73315;SDS011;61545;53.726;-0.444;2022-09-16T00:23:00;2.4;;;0.6;;
73315;SDS011;61545;53.726;-0.444;2022-09-16T00:28:01;1.6;;;0.8;;
73315;SDS011;61545;53.726;-0.444;2022-09-16T00:33:00;1.5;;;0.6;;
73315;SDS011;61545;53.726;-0.444;2022-09-16T00:38:00;1.2;;;0.5;;
73315;SDS011;61545;53.726;-0.444;2022-09-16T00:43:00;1.2;;;0.5;;
73315;SDS011;61545;53.726;-0.444;2022-09-16T00:48:02;2.9;;;0.9;;
73315;SDS011;61545;53.726;-0.444;2022-09-16T00:53:00;1.9;;;0.5;;
73315;SDS011;61545;53.726;-0.444;2022-09-16T00:58:03;2.1;;;0.6;;
73315;SDS011;61545;53.726;-0.444;2022-09-16T01:03:00;1.8;;;0.5;;
73315;SDS011;61545;53.726;-0.444;2022-09-16T01:08:01;2.8;;;0.7;;
73315;SDS011;61545;53.726;-0.444;2022-09-16T01:13:02;2.8;;;0.7;;
73315;SDS011;61545;53.726;-0.444;2022-09-16T01:18:06;2.2;;;0.5;;
73315;SDS011;61545;53.726;-0.444;2022-09-16T01:23:10;1.6;;;0.5;;
73315;SDS011;61545;53.726;-0.444;2022-09-16T01:28:18;2.5;;;0.7;;
73315;SDS011;61545;53.726;-0.444;2022-09-16T01:33:02;2.0;;;0.8;;
73315;SDS011;61545;53.726;-0.444;2022-09-16T01:38:06;2.4;;;0.9;;
73315;SDS011;61545;53.726;-0.444;2022-09-16T01:43:03;2.4;;;0.9;;
73315;SDS011;61545;53.726;-0.444;2022-09-16T01:48:03;3.3;;;1.3;;
73315;SDS011;61545;53.726;-0.444;2022-09-16T01:53:04;2.6;;;0.9;;
73315;SDS011;61545;53.726;-0.444;2022-09-16T01:58:02;1.9;;;0.7;;
73315;SDS011;61545;53.726;-0.444;2022-09-16T02:03:02;2.4;;;0.8;;
73315;SDS011;61545;53.726;-0.444;2022-09-16T02:08:03;1.7;;;0.9;;
73315;SDS011;61545;53.726;-0.444;2022-09-16T02:13:02;1.7;;;0.9;;
73315;SDS011;61545;53.726;-0.444;2022-09-16T02:18:01;2.8;;;0.9;;
73315;SDS011;61545;53.726;-0.444;2022-09-16T02:23:02;2.6;;;0.7;;
73315;SDS011;61545;53.726;-0.444;2022-09-16T02:28:01;2.1;;;0.6;;
73315;SDS011;61545;53.726;-0.444;2022-09-16T02:33:03;2.6;;;0.6;;
73315;SDS011;61545;53.726;-0.444;2022-09-16T02:38:02;2.1;;;0.4;;
73315;SDS011;61545;53.726;-0.444;2022-09-16T02:43:00;2.1;;;0.4;;
73315;SDS011;61545;53.726;-0.444;2022-09-16T02:48:02;2.4;;;0.7;;
73315;SDS011;61545;53.726;-0.444;2022-09-16T02:53:01;3.6;;;0.5;;
73315;SDS011;61545;53.726;-0.444;2022-09-16T02:58:00;2.4;;;0.6;;
73315;SDS011;61545;53.726;-0.444;2022-09-16T03:03:00;10.1;;;0.8;;
73315;SDS011;61545;53.726;-0.444;2022-09-16T03:08:01;2.1;;;0.7;;
73315;SDS011;61545;53.726;-0.444;2022-09-16T03:13:01;2.1;;;0.7;;
73315;SDS011;61545;53.726;-0.444;2022-09-16T03:18:14;3.0;;;0.5;;
73315;SDS011;61545;53.726;-0.444;2022-09-16T03:23:04;0.8;;;0.3;;
73315;SDS011;61545;53.726;-0.444;2022-09-16T03:28:02;2.5;;;0.6;;
73315;SDS011;61545;53.726;-0.444;2022-09-16T03:33:03;2.5;;;0.6;;
73315;SDS011;61545;53.726;-0.444;2022-09-16T03:38:00;2.8;;;0.6;;
73315;SDS011;61545;53.726;-0.444;2022-09-16T03:43:08;2.8;;;0.6;;
73315;SDS011;61545;53.726;-0.444;2022-09-16T03:48:01;2.5;;;0.6;;
73315;SDS011;61545;53.726;-0.444;2022-09-16T03:53:00;0.9;;;0.4;;
73315;SDS011;61545;53.726;-0.444;2022-09-16T03:58:00;2.4;;;0.6;;
73315;SDS011;61545;53.726;-0.444;2022-09-16T04:03:00;2.6;;;0.5;;
73315;SDS011;61545;53.726;-0.444;2022-09-16T04:08:01;1.6;;;0.7;;
73315;SDS011;61545;53.726;-0.444;2022-09-16T04:13:00;1.6;;;0.7;;
73315;SDS011;61545;53.726;-0.444;2022-09-16T04:18:01;1.1;;;0.4;;
73315;SDS011;61545;53.726;-0.444;2022-09-16T04:23:00;3.1;;;0.6;;
73315;SDS011;61545;53.726;-0.444;2022-09-16T04:28:01;3.2;;;0.6;;
73315;SDS011;61545;53.726;-0.444;2022-09-16T04:33:00;2.2;;;0.6;;
73315;SDS011;61545;53.726;-0.444;2022-09-16T04:38:00;2.0;;;0.5;;
73315;SDS011;61545;53.726;-0.444;2022-09-16T04:43:00;2.0;;;0.5;;
73315;SDS011;61545;53.726;-0.444;2022-09-16T04:48:01;1.7;;;0.3;;
73315;SDS011;61545;53.726;-0.444;2022-09-16T04:53:00;2.4;;;0.5;;
73315;SDS011;61545;53.726;-0.444;2022-09-16T04:58:00;0.8;;;0.3;;
73315;SDS011;61545;53.726;-0.444;2022-09-16T05:03:00;1.6;;;0.4;;
73315;SDS011;61545;53.726;-0.444;2022-09-16T05:08:01;4.0;;;0.6;;
73315;SDS011;61545;53.726;-0.444;2022-09-16T05:13:00;4.0;;;0.6;;
73315;SDS011;61545;53.726;-0.444;2022-09-16T05:18:00;2.2;;;0.4;;
73315;SDS011;61545;53.726;-0.444;2022-09-16T05:23:00;0.9;;;0.5;;
73315;SDS011;61545;53.726;-0.444;2022-09-16T05:28:01;1.6;;;0.2;;
73315;SDS011;61545;53.726;-0.444;2022-09-16T05:33:00;1.6;;;0.5;;
73315;SDS011;61545;53.726;-0.444;2022-09-16T05:38:00;2.7;;;0.5;;
73315;SDS011;61545;53.726;-0.444;2022-09-16T05:43:00;2.7;;;0.5;;
73315;SDS011;61545;53.726;-0.444;2022-09-16T05:48:01;1.6;;;0.4;;
73315;SDS011;61545;53.726;-0.444;2022-09-16T05:53:00;1.9;;;0.4;;
73315;SDS011;61545;53.726;-0.444;2022-09-16T05:58:00;1.9;;;0.3;;
73315;SDS011;61545;53.726;-0.444;2022-09-16T06:03:00;2.7;;;0.4;;
73315;SDS011;61545;53.726;-0.444;2022-09-16T06:08:00;1.7;;;0.6;;
73315;SDS011;61545;53.726;-0.444;2022-09-16T06:13:00;1.7;;;0.6;;
73315;SDS011;61545;53.726;-0.444;2022-09-16T06:18:00;1.4;;;0.5;;
73315;SDS011;61545;53.726;-0.444;2022-09-16T06:23:00;4.6;;;1;;
73315;SDS011;61545;53.726;-0.444;2022-09-16T06:28:01;1.5;;;0.6;;
73315;SDS011;61545;53.726;-0.444;2022-09-16T06:33:00;1.8;;;0.5;;
73315;SDS011;61545;53.726;-0.444;2022-09-16T06:38:01;4.5;;;1;;
73315;SDS011;61545;53.726;-0.444;2022-09-16T06:43:00;4.5;;;1;;
73315;SDS011;61545;53.726;-0.444;2022-09-16T06:48:01;4.4;;;0.4;;
73315;SDS011;61545;53.726;-0.444;2022-09-16T06:53:00;1.3;;;0.3;;
73315;SDS011;61545;53.726;-0.444;2022-09-16T06:58:00;2.6;;;0.8;;
73315;SDS011;61545;53.726;-0.444;2022-09-16T07:03:01;2.9;;;0.5;;
73315;SDS011;61545;53.726;-0.444;2022-09-16T07:08:01;2.6;;;0.5;;
73315;SDS011;61545;53.726;-0.444;2022-09-16T07:13:00;2.6;;;0.5;;
73315;SDS011;61545;53.726;-0.444;2022-09-16T07:18:00;1.6;;;0.5;;
73315;SDS011;61545;53.726;-0.444;2022-09-16T07:23:00;1.9;;;0.6;;
73315;SDS011;61545;53.726;-0.444;2022-09-16T07:28:01;2.9;;;0.5;;
73315;SDS011;61545;53.726;-0.444;2022-09-16T07:33:00;3.4;;;0.5;;
73315;SDS011;61545;53.726;-0.444;2022-09-16T07:38:00;1.3;;;0.5;;
73315;SDS011;61545;53.726;-0.444;2022-09-16T07:43:00;1.3;;;0.5;;
73315;SDS011;61545;53.726;-0.444;2022-09-16T07:48:01;4.1;;;0.6;;
73315;SDS011;61545;53.726;-0.444;2022-09-16T07:53:00;2.2;;;0.5;;
73315;SDS011;61545;53.726;-0.444;2022-09-16T07:58:00;2.6;;;0.4;;
73315;SDS011;61545;53.726;-0.444;2022-09-16T08:03:00;1.1;;;0.4;;
73315;SDS011;61545;53.726;-0.444;2022-09-16T08:08:01;1.1;;;0.5;;
73315;SDS011;61545;53.726;-0.444;2022-09-16T08:13:00;1.1;;;0.5;;
73315;SDS011;61545;53.726;-0.444;2022-09-16T08:18:00;3.2;;;0.6;;
73315;SDS011;61545;53.726;-0.444;2022-09-16T08:23:00;1.5;;;0.5;;
73315;SDS011;61545;53.726;-0.444;2022-09-16T08:28:01;3.9;;;0.7;;
73315;SDS011;61545;53.726;-0.444;2022-09-16T08:33:00;2.7;;;0.5;;
73315;SDS011;61545;53.726;-0.444;2022-09-16T08:38:00;2.7;;;0.5;;
73315;SDS011;61545;53.726;-0.444;2022-09-16T08:43:04;2.7;;;0.5;;
73315;SDS011;61545;53.726;-0.444;2022-09-16T08:48:08;2.7;;;0.7;;
73315;SDS011;61545;53.726;-0.444;2022-09-16T08:53:02;3.3;;;0.7;;
73315;SDS011;61545;53.726;-0.444;2022-09-16T08:58:02;2.4;;;0.5;;
73315;SDS011;61545;53.726;-0.444;2022-09-16T09:03:05;2.8;;;0.5;;
73315;SDS011;61545;53.726;-0.444;2022-09-16T09:08:10;2.7;;;0.7;;
73315;SDS011;61545;53.726;-0.444;2022-09-16T09:13:03;2.7;;;0.7;;
73315;SDS011;61545;53.726;-0.444;2022-09-16T09:18:09;2.1;;;0.6;;
73315;SDS011;61545;53.726;-0.444;2022-09-16T09:23:15;1.9;;;0.5;;
73315;SDS011;61545;53.726;-0.444;2022-09-16T09:28:10;3.4;;;0.7;;
73315;SDS011;61545;53.726;-0.444;2022-09-16T09:33:13;1.3;;;0.4;;
73315;SDS011;61545;53.726;-0.444;2022-09-16T09:38:28;2.2;;;0.5;;
73315;SDS011;61545;53.726;-0.444;2022-09-16T09:43:04;2.2;;;0.5;;
73315;SDS011;61545;53.726;-0.444;2022-09-16T09:48:02;3.4;;;0.6;;
73315;SDS011;61545;53.726;-0.444;2022-09-16T09:53:05;2.5;;;0.6;;
73315;SDS011;61545;53.726;-0.444;2022-09-16T09:58:05;4.0;;;0.5;;
73315;SDS011;61545;53.726;-0.444;2022-09-16T10:03:03;4.1;;;0.3;;
73315;SDS011;61545;53.726;-0.444;2022-09-16T10:08:03;1.5;;;0.4;;
73315;SDS011;61545;53.726;-0.444;2022-09-16T10:13:08;1.5;;;0.4;;
73315;SDS011;61545;53.726;-0.444;2022-09-16T10:18:00;4.3;;;0.8;;
73315;SDS011;61545;53.726;-0.444;2022-09-16T10:23:02;2.7;;;0.8;;
73315;SDS011;61545;53.726;-0.444;2022-09-16T10:28:02;4.4;;;1;;
73315;SDS011;61545;53.726;-0.444;2022-09-16T10:33:02;4.3;;;0.8;;
73315;SDS011;61545;53.726;-0.444;2022-09-16T10:38:03;2.2;;;0.6;;
73315;SDS011;61545;53.726;-0.444;2022-09-16T10:43:02;2.2;;;0.6;;
73315;SDS011;61545;53.726;-0.444;2022-09-16T10:48:03;2.3;;;0.7;;
73315;SDS011;61545;53.726;-0.444;2022-09-16T10:53:00;1.6;;;0.6;;
73315;SDS011;61545;53.726;-0.444;2022-09-16T10:58:10;2.6;;;0.5;;
73315;SDS011;61545;53.726;-0.444;2022-09-16T11:03:12;2.6;;;0.5;;
73315;SDS011;61545;53.726;-0.444;2022-09-16T11:08:07;5.8;;;1.1;;
73315;SDS011;61545;53.726;-0.444;2022-09-16T11:13:09;5.8;;;1.1;;
73315;SDS011;61545;53.726;-0.444;2022-09-16T11:18:09;5.0;;;0.8;;
73315;SDS011;61545;53.726;-0.444;2022-09-16T11:23:04;4.9;;;0.6;;
73315;SDS011;61545;53.726;-0.444;2022-09-16T11:33:10;3.7;;;0.9;;
73315;SDS011;61545;53.726;-0.444;2022-09-16T11:38:04;3.3;;;0.7;;
73315;SDS011;61545;53.726;-0.444;2022-09-16T11:43:12;3.3;;;0.7;;
73315;SDS011;61545;53.726;-0.444;2022-09-16T11:48:13;4.6;;;1;;
73315;SDS011;61545;53.726;-0.444;2022-09-16T11:53:11;6.0;;;1;;
73315;SDS011;61545;53.726;-0.444;2022-09-16T11:58:03;3.8;;;0.8;;
73315;SDS011;61545;53.726;-0.444;2022-09-16T12:03:03;4.7;;;0.8;;
73315;SDS011;61545;53.726;-0.444;2022-09-16T12:08:03;4.7;;;0.8;;
73315;SDS011;61545;53.726;-0.444;2022-09-16T12:13:03;3.7;;;0.9;;
73315;SDS011;61545;53.726;-0.444;2022-09-16T12:18:07;3.5;;;0.8;;
73315;SDS011;61545;53.726;-0.444;2022-09-16T12:23:05;1.8;;;0.6;;
73315;SDS011;61545;53.726;-0.444;2022-09-16T12:28:02;4.3;;;0.9;;
73315;SDS011;61545;53.726;-0.444;2022-09-16T12:33:03;5.6;;;1.2;;
73315;SDS011;61545;53.726;-0.444;2022-09-16T12:38:00;5.6;;;1.2;;
73315;SDS011;61545;53.726;-0.444;2022-09-16T12:43:17;4.8;;;1.1;;
73315;SDS011;61545;53.726;-0.444;2022-09-16T12:48:12;6.3;;;1.2;;
73315;SDS011;61545;53.726;-0.444;2022-09-16T12:53:14;4.5;;;1.2;;
73315;SDS011;61545;53.726;-0.444;2022-09-16T12:58:10;4.2;;;1.2;;
73315;SDS011;61545;53.726;-0.444;2022-09-16T13:03:05;6.3;;;0.9;;
73315;SDS011;61545;53.726;-0.444;2022-09-16T13:08:02;6.3;;;0.9;;
73315;SDS011;61545;53.726;-0.444;2022-09-16T13:13:01;2.9;;;0.7;;
73315;SDS011;61545;53.726;-0.444;2022-09-16T13:18:09;5.8;;;0.9;;
73315;SDS011;61545;53.726;-0.444;2022-09-16T13:23:04;4.5;;;0.7;;
73315;SDS011;61545;53.726;-0.444;2022-09-16T13:28:02;10.0;;;1.6;;
73315;SDS011;61545;53.726;-0.444;2022-09-16T13:33:20;9.9;;;1.1;;
73315;SDS011;61545;53.726;-0.444;2022-09-16T13:38:10;9.9;;;1.1;;
73315;SDS011;61545;53.726;-0.444;2022-09-16T13:43:03;3.1;;;0.9;;
73315;SDS011;61545;53.726;-0.444;2022-09-16T13:48:04;5.6;;;1;;
73315;SDS011;61545;53.726;-0.444;2022-09-16T13:53:08;2.7;;;0.8;;
73315;SDS011;61545;53.726;-0.444;2022-09-16T13:58:01;5.1;;;1.4;;
73315;SDS011;61545;53.726;-0.444;2022-09-16T14:03:31;3.2;;;0.7;;
73315;SDS011;61545;53.726;-0.444;2022-09-16T14:08:04;3.2;;;0.7;;
73315;SDS011;61545;53.726;-0.444;2022-09-16T14:13:03;5.6;;;0.9;;
73315;SDS011;61545;53.726;-0.444;2022-09-16T14:18:00;4.5;;;0.8;;
73315;SDS011;61545;53.726;-0.444;2022-09-16T14:23:02;3.7;;;0.9;;
73315;SDS011;61545;53.726;-0.444;2022-09-16T14:28:14;4.1;;;0.8;;
73315;SDS011;61545;53.726;-0.444;2022-09-16T14:33:01;3.1;;;0.7;;
73315;SDS011;61545;53.726;-0.444;2022-09-16T14:38:02;3.1;;;0.7;;
73315;SDS011;61545;53.726;-0.444;2022-09-16T14:43:02;4.8;;;0.7;;
73315;SDS011;61545;53.726;-0.444;2022-09-16T14:48:03;4.3;;;0.9;;
73315;SDS011;61545;53.726;-0.444;2022-09-16T14:53:02;3.8;;;0.9;;
73315;SDS011;61545;53.726;-0.444;2022-09-16T14:58:00;5.4;;;1;;
73315;SDS011;61545;53.726;-0.444;2022-09-16T15:03:02;5.5;;;1.1;;
73315;SDS011;61545;53.726;-0.444;2022-09-16T15:08:06;5.5;;;1.1;;
73315;SDS011;61545;53.726;-0.444;2022-09-16T15:13:03;2.8;;;0.7;;
73315;SDS011;61545;53.726;-0.444;2022-09-16T15:18:02;5.3;;;1.1;;
73315;SDS011;61545;53.726;-0.444;2022-09-16T15:23:01;2.8;;;0.8;;
73315;SDS011;61545;53.726;-0.444;2022-09-16T15:28:03;6.0;;;0.9;;
73315;SDS011;61545;53.726;-0.444;2022-09-16T15:33:00;4.7;;;1;;
73315;SDS011;61545;53.726;-0.444;2022-09-16T15:38:09;4.7;;;1;;
73315;SDS011;61545;53.726;-0.444;2022-09-16T15:43:03;3.8;;;0.9;;
73315;SDS011;61545;53.726;-0.444;2022-09-16T15:48:03;3.6;;;0.8;;
73315;SDS011;61545;53.726;-0.444;2022-09-16T15:53:03;3.3;;;0.8;;
73315;SDS011;61545;53.726;-0.444;2022-09-16T15:58:04;7.6;;;0.9;;
73315;SDS011;61545;53.726;-0.444;2022-09-16T16:03:00;3.2;;;0.5;;
73315;SDS011;61545;53.726;-0.444;2022-09-16T16:08:02;3.2;;;0.5;;
73315;SDS011;61545;53.726;-0.444;2022-09-16T16:13:01;2.9;;;0.9;;
73315;SDS011;61545;53.726;-0.444;2022-09-16T16:18:02;4.7;;;0.9;;
73315;SDS011;61545;53.726;-0.444;2022-09-16T16:23:01;8.1;;;1.3;;
73315;SDS011;61545;53.726;-0.444;2022-09-16T16:28:01;5.3;;;1.2;;
73315;SDS011;61545;53.726;-0.444;2022-09-16T16:33:00;5.3;;;0.7;;
73315;SDS011;61545;53.726;-0.444;2022-09-16T16:38:01;5.3;;;0.7;;
73315;SDS011;61545;53.726;-0.444;2022-09-16T16:43:00;5.6;;;0.7;;
73315;SDS011;61545;53.726;-0.444;2022-09-16T16:48:01;3.0;;;0.6;;
73315;SDS011;61545;53.726;-0.444;2022-09-16T16:53:01;2.7;;;0.7;;
73315;SDS011;61545;53.726;-0.444;2022-09-16T16:58:01;2.4;;;0.6;;
73315;SDS011;61545;53.726;-0.444;2022-09-16T17:03:01;6.1;;;1.1;;
73315;SDS011;61545;53.726;-0.444;2022-09-16T17:08:01;6.1;;;1.1;;
73315;SDS011;61545;53.726;-0.444;2022-09-16T17:13:01;5.1;;;1.3;;
73315;SDS011;61545;53.726;-0.444;2022-09-16T17:18:01;5.8;;;0.9;;
73315;SDS011;61545;53.726;-0.444;2022-09-16T17:23:00;4.3;;;0.9;;
73315;SDS011;61545;53.726;-0.444;2022-09-16T17:28:01;3.9;;;0.8;;
73315;SDS011;61545;53.726;-0.444;2022-09-16T17:33:01;2.5;;;0.8;;
73315;SDS011;61545;53.726;-0.444;2022-09-16T17:38:01;2.5;;;0.8;;
73315;SDS011;61545;53.726;-0.444;2022-09-16T17:43:01;4.1;;;1.1;;
73315;SDS011;61545;53.726;-0.444;2022-09-16T17:48:01;2.8;;;0.8;;
73315;SDS011;61545;53.726;-0.444;2022-09-16T17:53:01;2.6;;;0.6;;
73315;SDS011;61545;53.726;-0.444;2022-09-16T17:58:01;3.8;;;0.8;;
73315;SDS011;61545;53.726;-0.444;2022-09-16T18:03:01;4.8;;;0.8;;
73315;SDS011;61545;53.726;-0.444;2022-09-16T18:08:01;4.8;;;0.8;;
73315;SDS011;61545;53.726;-0.444;2022-09-16T18:13:01;5.4;;;1.1;;
73315;SDS011;61545;53.726;-0.444;2022-09-16T18:18:01;3.4;;;0.8;;
73315;SDS011;61545;53.726;-0.444;2022-09-16T18:23:01;3.6;;;1;;
73315;SDS011;61545;53.726;-0.444;2022-09-16T18:28:01;5.3;;;0.8;;
73315;SDS011;61545;53.726;-0.444;2022-09-16T18:33:01;3.3;;;0.7;;
73315;SDS011;61545;53.726;-0.444;2022-09-16T18:38:01;3.3;;;0.7;;
73315;SDS011;61545;53.726;-0.444;2022-09-16T18:43:01;3.7;;;0.8;;
73315;SDS011;61545;53.726;-0.444;2022-09-16T18:48:01;4.7;;;0.8;;
73315;SDS011;61545;53.726;-0.444;2022-09-16T18:53:01;5.5;;;1;;
73315;SDS011;61545;53.726;-0.444;2022-09-16T18:58:01;5.7;;;1;;
73315;SDS011;61545;53.726;-0.444;2022-09-16T19:03:01;6.4;;;1.1;;
73315;SDS011;61545;53.726;-0.444;2022-09-16T19:08:01;6.4;;;1.1;;
73315;SDS011;61545;53.726;-0.444;2022-09-16T19:13:01;8.2;;;1.2;;
73315;SDS011;61545;53.726;-0.444;2022-09-16T19:18:01;8.7;;;1.2;;
73315;SDS011;61545;53.726;-0.444;2022-09-16T19:23:01;5.1;;;1;;
73315;SDS011;61545;53.726;-0.444;2022-09-16T19:28:01;7.6;;;2.4;;
73315;SDS011;61545;53.726;-0.444;2022-09-16T19:33:01;12.5;;;2.3;;
73315;SDS011;61545;53.726;-0.444;2022-09-16T19:38:01;12.5;;;2.3;;
73315;SDS011;61545;53.726;-0.444;2022-09-16T19:43:01;8.0;;;3.1;;
73315;SDS011;61545;53.726;-0.444;2022-09-16T19:48:01;15.3;;;5.7;;
73315;SDS011;61545;53.726;-0.444;2022-09-16T19:53:01;7.6;;;2.2;;
73315;SDS011;61545;53.726;-0.444;2022-09-16T19:58:01;11.7;;;3.4;;
73315;SDS011;61545;53.726;-0.444;2022-09-16T20:03:01;9.7;;;1.9;;
73315;SDS011;61545;53.726;-0.444;2022-09-16T20:08:01;9.7;;;1.9;;
73315;SDS011;61545;53.726;-0.444;2022-09-16T20:13:01;7.2;;;1.5;;
73315;SDS011;61545;53.726;-0.444;2022-09-16T20:18:01;7.7;;;1.3;;
73315;SDS011;61545;53.726;-0.444;2022-09-16T20:23:01;4.4;;;1.1;;
73315;SDS011;61545;53.726;-0.444;2022-09-16T20:28:01;4.4;;;1.1;;
73315;SDS011;61545;53.726;-0.444;2022-09-16T20:33:01;8.3;;;1.4;;
73315;SDS011;61545;53.726;-0.444;2022-09-16T20:38:01;8.3;;;1.4;;
73315;SDS011;61545;53.726;-0.444;2022-09-16T20:43:01;3.5;;;1.2;;
73315;SDS011;61545;53.726;-0.444;2022-09-16T20:48:01;5.8;;;1.1;;
73315;SDS011;61545;53.726;-0.444;2022-09-16T20:53:01;5.9;;;1.1;;
73315;SDS011;61545;53.726;-0.444;2022-09-16T20:58:01;6.2;;;1.2;;
73315;SDS011;61545;53.726;-0.444;2022-09-16T21:03:01;6.2;;;1.2;;
73315;SDS011;61545;53.726;-0.444;2022-09-16T21:08:01;6.2;;;1.2;;
73315;SDS011;61545;53.726;-0.444;2022-09-16T21:13:01;8.6;;;1.5;;
73315;SDS011;61545;53.726;-0.444;2022-09-16T21:18:01;4.8;;;1.2;;
73315;SDS011;61545;53.726;-0.444;2022-09-16T21:23:01;5.6;;;1.1;;
73315;SDS011;61545;53.726;-0.444;2022-09-16T21:28:01;7.8;;;1.1;;
73315;SDS011;61545;53.726;-0.444;2022-09-16T21:33:01;6.9;;;1.3;;
73315;SDS011;61545;53.726;-0.444;2022-09-16T21:38:01;6.9;;;1.3;;
73315;SDS011;61545;53.726;-0.444;2022-09-16T21:43:01;9.4;;;1.2;;
73315;SDS011;61545;53.726;-0.444;2022-09-16T21:48:01;7.5;;;1.4;;
73315;SDS011;61545;53.726;-0.444;2022-09-16T21:53:01;7.1;;;1.4;;
73315;SDS011;61545;53.726;-0.444;2022-09-16T21:58:01;5.6;;;1.2;;
73315;SDS011;61545;53.726;-0.444;2022-09-16T22:03:01;8.0;;;1.6;;
73315;SDS011;61545;53.726;-0.444;2022-09-16T22:08:01;8.0;;;1.6;;
73315;SDS011;61545;53.726;-0.444;2022-09-16T22:13:01;4.7;;;1.2;;
73315;SDS011;61545;53.726;-0.444;2022-09-16T22:18:01;5.7;;;1.4;;
73315;SDS011;61545;53.726;-0.444;2022-09-16T22:23:01;5.3;;;1.4;;
73315;SDS011;61545;53.726;-0.444;2022-09-16T22:28:01;5.0;;;1.4;;
73315;SDS011;61545;53.726;-0.444;2022-09-16T22:33:01;3.7;;;0.9;;
73315;SDS011;61545;53.726;-0.444;2022-09-16T22:38:01;3.7;;;0.9;;
73315;SDS011;61545;53.726;-0.444;2022-09-16T22:43:01;4.5;;;1.2;;
73315;SDS011;61545;53.726;-0.444;2022-09-16T22:48:01;6.7;;;1.6;;
73315;SDS011;61545;53.726;-0.444;2022-09-16T22:53:01;4.5;;;1;;
73315;SDS011;61545;53.726;-0.444;2022-09-16T22:58:01;5.7;;;1.1;;
73315;SDS011;61545;53.726;-0.444;2022-09-16T23:03:01;5.9;;;1.1;;
73315;SDS011;61545;53.726;-0.444;2022-09-16T23:08:01;5.9;;;1.1;;
73315;SDS011;61545;53.726;-0.444;2022-09-16T23:13:01;5.9;;;0.8;;
73315;SDS011;61545;53.726;-0.444;2022-09-16T23:18:01;4.5;;;1.1;;
73315;SDS011;61545;53.726;-0.444;2022-09-16T23:23:01;5.6;;;1.2;;
73315;SDS011;61545;53.726;-0.444;2022-09-16T23:28:01;4.5;;;1.1;;
73315;SDS011;61545;53.726;-0.444;2022-09-16T23:33:01;5.8;;;1;;
73315;SDS011;61545;53.726;-0.444;2022-09-16T23:38:01;5.8;;;1;;
73315;SDS011;61545;53.726;-0.444;2022-09-16T23:43:01;5.8;;;1.2;;
73315;SDS011;61545;53.726;-0.444;2022-09-16T23:48:01;4.5;;;1.3;;
73315;SDS011;61545;53.726;-0.444;2022-09-16T23:53:01;3.3;;;0.9;;
73315;SDS011;61545;53.726;-0.444;2022-09-16T23:58:01;3.6;;;0.9;;
